Time;durP1;ratioP1;P1;durP2;ratioP2;P2;SDS_P1;SDS_P2;PMS_P1;PMS_P2;Temp;Humidity;BMP_temperature;BMP_pressure;BME280_temperature;BME280_humidity;BME280_pressure;Samples;Min_cycle;Max_cycle;Signal;HPM_P1;HPM_P2
2023/09/26 00:00:24;;;;;;;;;15.00;14.00;;;;;19.41;68.46;101602.09;5084756;27;45297;-69
2023/09/26 00:02:52;;;;;;;;;17.33;14.67;;;;;19.32;68.54;101587.22;5086404;27;45524;-69
2023/09/26 00:05:19;;;;;;;;;15.33;13.33;;;;;19.44;68.14;101608.22;5088730;27;48149;-72
2023/09/26 00:07:45;;;;;;;;;15.67;13.33;;;;;19.46;68.24;101609.06;5071734;27;45393;-69
2023/09/26 00:10:12;;;;;;;;;15.67;13.33;;;;;19.36;68.06;101583.63;5080702;27;45720;-69
2023/09/26 00:12:38;;;;;;;;;15.33;11.00;;;;;19.43;68.20;101602.94;5079796;27;45274;-73
2023/09/26 00:15:04;;;;;;;;;17.00;14.00;;;;;19.28;68.59;101590.84;5079525;28;45424;-72
2023/09/26 00:17:34;;;;;;;;;19.67;15.67;;;;;19.20;68.52;101583.03;5078616;27;45576;-68
2023/09/26 00:19:59;;;;;;;;;15.00;15.00;;;;;19.31;68.54;101601.41;5078487;27;45891;-68
2023/09/26 00:22:25;;;;;;;;;13.00;11.33;;;;;19.20;68.26;101571.56;5078768;27;45287;-67
2023/09/26 00:24:51;;;;;;;;;16.67;15.33;;;;;19.30;68.76;101596.13;5078542;27;46165;-70
2023/09/26 00:27:20;;;;;;;;;22.00;15.33;;;;;19.03;68.88;101558.59;5078637;27;45543;-71
2023/09/26 00:29:47;;;;;;;;;19.67;14.33;;;;;19.09;69.48;101590.34;5064610;27;46533;-70
2023/09/26 00:32:17;;;;;;;;;17.00;16.00;;;;;19.02;69.62;101586.06;5068456;27;46646;-72
2023/09/26 00:34:46;;;;;;;;;15.67;15.33;;;;;18.65;69.83;101521.28;5077263;28;46888;-70
2023/09/26 00:37:12;;;;;;;;;14.67;12.33;;;;;18.89;69.39;101564.19;5085168;27;45476;-66
2023/09/26 00:39:38;;;;;;;;;16.67;15.67;;;;;19.03;69.29;101588.69;5078183;27;45425;-67
2023/09/26 00:42:03;;;;;;;;;19.00;17.33;;;;;19.01;69.76;101584.31;5077668;27;45744;-71
2023/09/26 00:44:29;;;;;;;;;19.67;17.33;;;;;18.95;69.84;101587.94;5076634;27;45925;-73
2023/09/26 00:46:55;;;;;;;;;19.67;18.67;;;;;18.98;69.51;101598.53;5077496;27;45500;-74
2023/09/26 00:49:20;;;;;;;;;19.00;18.00;;;;;18.99;70.08;101592.31;5079072;27;45686;-72
2023/09/26 00:51:47;;;;;;;;;15.67;13.00;;;;;19.01;69.44;101594.94;5077615;27;45425;-73
2023/09/26 00:54:16;;;;;;;;;16.33;13.33;;;;;18.91;68.83;101580.06;5077888;27;45451;-73
2023/09/26 00:56:42;;;;;;;;;15.33;14.33;;;;;18.96;68.52;101583.50;5078372;27;45468;-71
2023/09/26 00:59:07;;;;;;;;;21.00;15.00;;;;;18.78;68.76;101572.34;5079459;28;45383;-72
2023/09/26 01:01:35;;;;;;;;;14.00;14.00;;;;;18.82;69.14;101597.06;5078449;27;45499;-70
2023/09/26 01:04:01;;;;;;;;;17.00;14.67;;;;;18.80;68.77;101601.53;5077911;28;46058;-74
2023/09/26 01:06:27;;;;;;;;;15.00;15.00;;;;;18.81;69.10;101600.63;5076525;28;45283;-73
2023/09/26 01:08:52;;;;;;;;;15.00;12.67;;;;;18.73;68.80;101578.63;5078013;27;45593;-73
2023/09/26 01:11:18;;;;;;;;;19.67;15.67;;;;;18.79;68.79;101589.16;5078407;27;45733;-70
2023/09/26 01:13:45;;;;;;;;;15.67;12.00;;;;;18.72;69.18;101585.72;5078933;27;46115;-73
2023/09/26 01:16:18;;;;;;;;;15.67;14.67;;;;;18.69;68.89;101583.09;5077757;27;45925;-73
2023/09/26 01:18:45;;;;;;;;;21.67;14.33;;;;;18.64;68.63;101579.66;5077839;27;45472;-72
2023/09/26 01:21:11;;;;;;;;;11.67;11.67;;;;;18.57;68.84;101567.41;5079179;27;45309;-73
2023/09/26 01:23:40;;;;;;;;;19.33;13.33;;;;;18.39;68.87;101553.59;5078097;28;45554;-73
2023/09/26 01:26:05;;;;;;;;;14.67;14.67;;;;;18.50;68.84;101571.94;5077698;27;46032;-75
2023/09/26 01:28:31;;;;;;;;;10.67;10.00;;;;;18.59;68.89;101579.75;5077710;27;45779;-73
2023/09/26 01:30:57;;;;;;;;;14.00;10.67;;;;;18.50;68.55;101560.47;5077576;27;45222;-73
2023/09/26 01:37:20;;;;;;;;;9.33;7.67;;;;;18.67;67.15;101578.72;4916395;28;45463;-74
2023/09/26 01:39:56;;;;;;;;;12.67;11.67;;;;;18.60;66.86;101567.34;4917818;28;45460;-74
2023/09/26 01:42:25;;;;;;;;;15.00;12.67;;;;;18.49;66.83;101543.69;5006513;28;45696;-73
2023/09/26 01:44:56;;;;;;;;;15.00;10.67;;;;;18.63;66.31;101560.22;4981082;28;46002;-73
2023/09/26 01:48:00;;;;;;;;;15.00;10.33;;;;;18.51;66.87;101552.50;5031478;27;45354;-72
2023/09/26 01:50:35;;;;;;;;;12.33;12.33;;;;;18.43;67.08;101536.69;5077949;27;45400;-73
2023/09/26 01:53:08;;;;;;;;;17.00;13.67;;;;;18.34;67.06;101541.28;5077621;28;45305;-74
2023/09/26 01:55:48;;;;;;;;;13.00;12.33;;;;;18.33;67.40;101550.16;5073377;28;45467;-74
2023/09/26 01:58:41;;;;;;;;;15.00;12.00;;;;;18.35;66.66;101551.88;5078332;27;45434;-72
2023/09/26 02:01:33;;;;;;;;;16.33;12.67;;;;;18.33;66.81;101547.50;5079064;27;45306;-71
2023/09/26 02:04:24;;;;;;;;;14.00;10.33;;;;;18.32;66.09;101553.69;5078858;27;45313;-72
2023/09/26 02:07:03;;;;;;;;;10.00;10.00;;;;;18.33;65.79;101564.28;5078407;27;45394;-72
2023/09/26 02:09:37;;;;;;;;;15.33;11.00;;;;;18.36;65.23;101564.22;5075998;28;45397;-72
2023/09/26 02:12:15;;;;;;;;;16.00;10.33;;;;;18.31;64.59;101565.22;5079241;27;45345;-73
2023/09/26 02:14:40;;;;;;;;;11.33;8.67;;;;;18.19;64.11;101551.25;5076841;27;45453;-67
2023/09/26 02:17:05;;;;;;;;;9.67;8.67;;;;;18.19;63.83;101561.84;5077871;27;45807;-66
2023/09/26 02:19:32;;;;;;;;;10.67;10.67;;;;;18.19;63.91;101561.84;5076999;27;45645;-68
2023/09/26 02:21:57;;;;;;;;;9.67;9.33;;;;;18.29;63.52;101573.19;5076923;27;45448;-72
2023/09/26 02:24:23;;;;;;;;;11.00;8.67;;;;;18.25;63.15;101546.72;5075557;27;45602;-73
2023/09/26 02:26:49;;;;;;;;;9.00;9.00;;;;;18.17;63.26;101525.66;5075663;27;46815;-72
2023/09/26 02:29:14;;;;;;;;;10.00;9.33;;;;;18.21;63.01;101524.72;5094217;27;45567;-71
2023/09/26 02:31:40;;;;;;;;;11.00;8.67;;;;;18.33;62.79;101552.81;5077418;27;45432;-71
2023/09/26 02:34:05;;;;;;;;;9.67;8.33;;;;;18.30;62.75;101552.88;5076955;27;45462;-73
2023/09/26 02:36:31;;;;;;;;;8.67;8.67;;;;;18.29;62.46;101543.13;5075975;27;45945;-71
2023/09/26 02:38:56;;;;;;;;;13.00;9.33;;;;;18.29;61.65;101549.31;5076332;27;45373;-72
2023/09/26 02:41:22;;;;;;;;;8.00;7.33;;;;;18.22;61.65;101542.38;5076795;28;45499;-73
2023/09/26 02:43:52;;;;;;;;;6.67;6.67;;;;;17.95;61.98;101520.72;5078070;28;45521;-72
2023/09/26 02:46:17;;;;;;;;;6.67;6.67;;;;;18.14;61.81;101554.88;5078627;28;45662;-71
2023/09/26 02:48:43;;;;;;;;;9.00;6.67;;;;;18.19;62.04;101558.34;5078205;27;45389;-73
2023/09/26 02:51:08;;;;;;;;;8.33;8.33;;;;;18.15;62.09;101540.72;5076588;28;45343;-73
2023/09/26 02:53:34;;;;;;;;;9.67;9.00;;;;;18.01;61.92;101510.03;5076936;27;45485;-71
2023/09/26 02:55:59;;;;;;;;;8.33;7.67;;;;;18.08;61.94;101541.72;5076354;28;45459;-72
2023/09/26 02:58:25;;;;;;;;;15.33;10.67;;;;;17.97;62.31;101526.00;5076966;27;45661;-72
2023/09/26 03:00:50;;;;;;;;;11.33;9.00;;;;;17.96;62.05;101532.19;5077234;27;45315;-72
2023/09/26 03:03:16;;;;;;;;;7.67;7.67;;;;;17.90;62.32;101530.53;5066195;27;45483;-72
2023/09/26 03:05:49;;;;;;;;;11.00;9.33;;;;;17.93;62.12;101526.94;5064249;27;45331;-72
2023/09/26 03:08:18;;;;;;;;;10.33;7.67;;;;;17.86;62.40;101507.59;5063884;27;45511;-72
2023/09/26 03:10:44;;;;;;;;;10.67;8.33;;;;;17.92;62.16;101525.22;5082296;27;45323;-73
2023/09/26 03:13:10;;;;;;;;;9.00;9.00;;;;;17.97;62.49;101521.56;5081509;27;45456;-71
2023/09/26 03:15:35;;;;;;;;;10.33;7.33;;;;;17.97;62.32;101518.91;5093138;27;45516;-73
2023/09/26 03:18:01;;;;;;;;;14.00;9.00;;;;;17.90;62.48;101517.28;5082693;27;45369;-72
2023/09/26 03:20:27;;;;;;;;;10.67;9.00;;;;;17.84;62.73;101511.19;5082847;27;45612;-73
2023/09/26 03:22:52;;;;;;;;;10.00;8.67;;;;;17.59;62.75;101485.06;5081572;27;45473;-72
2023/09/26 03:25:19;;;;;;;;;7.33;7.33;;;;;17.70;62.57;101493.72;5084069;27;45479;-72
2023/09/26 03:27:46;;;;;;;;;8.00;8.00;;;;;17.65;62.71;101495.53;5081863;27;45313;-72
2023/09/26 03:30:15;;;;;;;;;9.00;9.00;;;;;17.66;62.80;101502.59;5080623;27;45252;-73
2023/09/26 03:32:40;;;;;;;;;9.00;7.00;;;;;17.70;62.76;101504.31;5080120;27;45501;-72
2023/09/26 03:35:06;;;;;;;;;10.00;8.33;;;;;17.45;63.11;101465.84;5079489;27;46494;-73
2023/09/26 03:37:33;;;;;;;;;7.67;7.67;;;;;17.54;62.80;101490.41;5078406;27;45557;-70
2023/09/26 03:39:58;;;;;;;;;9.00;9.00;;;;;17.70;62.91;101506.97;5079681;27;45404;-71
2023/09/26 03:42:24;;;;;;;;;10.33;8.00;;;;;17.52;62.63;101468.38;5078152;27;45566;-73
2023/09/26 03:44:52;;;;;;;;;9.33;7.00;;;;;17.63;62.53;101494.72;5077587;28;45711;-72
2023/09/26 03:47:18;;;;;;;;;8.00;8.00;;;;;17.76;62.79;101519.22;5077756;28;45389;-74
2023/09/26 03:49:43;;;;;;;;;7.00;7.00;;;;;17.74;62.58;101515.72;5077796;28;45406;-71
2023/09/26 03:52:09;;;;;;;;;8.67;5.67;;;;;17.69;62.74;101506.97;5077741;28;45333;-71
2023/09/26 03:54:36;;;;;;;;;7.00;7.00;;;;;17.62;62.80;101503.53;5079290;28;45833;-72
2023/09/26 03:57:04;;;;;;;;;11.33;7.67;;;;;17.43;62.73;101462.34;5094679;27;45314;-72
2023/09/26 03:59:30;;;;;;;;;10.33;8.67;;;;;17.69;62.94;101515.78;5080652;28;45291;-67
2023/09/26 04:01:55;;;;;;;;;8.33;8.00;;;;;17.51;62.91;101489.56;5080400;27;45339;-69
2023/09/26 04:04:21;;;;;;;;;10.00;9.67;;;;;17.40;63.35;101467.69;5079217;27;46399;-66
2023/09/26 04:06:47;;;;;;;;;8.33;8.33;;;;;17.46;63.18;101475.53;5079199;27;45347;-71
2023/09/26 04:09:12;;;;;;;;;11.33;8.00;;;;;17.57;63.43;101503.59;5078925;27;45483;-69
2023/09/26 04:11:37;;;;;;;;;11.33;9.00;;;;;17.53;63.62;101499.25;5079103;27;45410;-71
2023/09/26 04:14:06;;;;;;;;;9.67;7.33;;;;;17.36;63.42;101467.72;5078326;27;46204;-72
2023/09/26 04:16:32;;;;;;;;;11.00;9.33;;;;;17.48;63.46;101492.28;5078417;27;45437;-72
2023/09/26 04:18:58;;;;;;;;;11.67;8.33;;;;;17.24;63.31;101459.09;5078963;28;45337;-68
2023/09/26 04:21:24;;;;;;;;;7.67;7.33;;;;;17.41;63.04;101490.59;5078952;27;45402;-67
2023/09/26 04:23:49;;;;;;;;;8.67;8.67;;;;;17.23;63.46;101473.22;5078722;27;45444;-68
2023/09/26 04:26:17;;;;;;;;;9.67;8.00;;;;;17.07;63.32;101454.03;5078765;27;45539;-69
2023/09/26 04:28:46;;;;;;;;;9.67;8.67;;;;;17.25;63.48;101485.53;5080348;27;45504;-73
2023/09/26 04:31:17;;;;;;;;;8.67;8.33;;;;;17.24;63.38;101486.41;5078984;27;45431;-78
2023/09/26 04:33:47;;;;;;;;;9.33;9.00;;;;;17.20;63.81;101481.19;5079539;27;45677;-76
2023/09/26 04:36:13;;;;;;;;;9.33;9.33;;;;;17.12;64.01;101481.31;5078764;27;45435;-71
2023/09/26 04:38:40;;;;;;;;;10.33;8.67;;;;;17.04;64.28;101478.75;5080357;27;45414;-71
2023/09/26 04:41:27;;;;;;;;;12.00;10.33;;;;;16.72;64.32;101423.56;5079620;27;45376;-67
2023/09/26 04:43:53;;;;;;;;;8.67;8.67;;;;;16.92;64.03;101453.31;5080215;27;46564;-76
2023/09/26 04:46:37;;;;;;;;;8.33;8.00;;;;;17.18;64.12;101491.81;5073210;27;45393;-74
2023/09/26 04:49:03;;;;;;;;;10.67;8.67;;;;;17.26;63.71;101494.34;5068845;27;45508;-73
2023/09/26 04:51:28;;;;;;;;;14.00;11.00;;;;;17.05;63.33;101450.50;5078747;27;45443;-70
2023/09/26 04:53:56;;;;;;;;;9.00;8.33;;;;;17.19;63.94;101463.56;5078467;27;46226;-77
2023/09/26 04:56:22;;;;;;;;;10.67;10.67;;;;;17.21;64.02;101480.31;5078589;27;45329;-75
2023/09/26 04:58:51;;;;;;;;;9.00;9.00;;;;;17.15;63.98;101463.59;5080001;27;45433;-78
2023/09/26 05:01:16;;;;;;;;;10.67;9.33;;;;;16.52;63.96;101381.50;5078765;27;45509;-77
2023/09/26 05:03:42;;;;;;;;;14.00;11.00;;;;;17.23;63.92;101476.75;5079022;27;46491;-80
2023/09/26 05:06:10;;;;;;;;;12.67;12.33;;;;;17.22;63.76;101477.63;5079091;27;45731;-75
2023/09/26 05:08:36;;;;;;;;;8.33;8.00;;;;;17.09;64.05;101455.75;5080586;27;45333;-73
2023/09/26 05:11:02;;;;;;;;;12.33;10.67;;;;;17.05;64.55;101461.97;5073686;27;45510;-74
2023/09/26 05:13:28;;;;;;;;;12.00;9.67;;;;;17.01;64.48;101459.38;5070802;27;45287;-78
2023/09/26 05:15:53;;;;;;;;;16.33;12.00;;;;;16.77;64.22;101418.22;5079069;27;45400;-79
2023/09/26 05:18:23;;;;;;;;;13.33;13.33;;;;;16.75;64.07;101428.81;5078788;27;45447;-81
2023/09/26 05:20:48;;;;;;;;;10.00;8.33;;;;;17.00;64.32;101457.66;5080466;27;45488;-80
2023/09/26 05:23:14;;;;;;;;;10.33;9.33;;;;;17.03;64.42;101461.09;5078117;27;48396;-76
2023/09/26 05:25:40;;;;;;;;;13.00;8.67;;;;;16.85;64.21;101443.72;5079642;27;45384;-75
2023/09/26 05:28:06;;;;;;;;;11.33;9.67;;;;;16.95;64.47;101465.63;5078747;27;45441;-70
2023/09/26 05:30:32;;;;;;;;;8.00;8.00;;;;;17.02;64.64;101479.69;5079121;27;45411;-78
2023/09/26 05:33:01;;;;;;;;;10.33;7.67;;;;;17.06;64.64;101466.38;5077657;27;45600;-77
2023/09/26 05:35:26;;;;;;;;;10.33;9.33;;;;;16.49;64.47;101381.53;5078385;27;45506;-68
2023/09/26 05:37:52;;;;;;;;;13.67;12.33;;;;;16.74;64.51;101413.84;5077626;28;45485;-68
2023/09/26 05:40:30;;;;;;;;;14.33;10.00;;;;;16.82;64.59;101446.38;5076849;27;45347;-77
2023/09/26 05:43:00;;;;;;;;;14.00;11.00;;;;;16.99;64.89;101472.66;5064856;27;47078;-72
2023/09/26 05:45:26;;;;;;;;;14.00;10.67;;;;;16.87;64.67;101460.47;5075525;28;45841;-69
2023/09/26 05:47:52;;;;;;;;;12.00;10.67;;;;;16.82;65.08;101427.00;5068393;27;45481;-66
2023/09/26 05:50:18;;;;;;;;;16.33;9.33;;;;;16.91;65.26;101454.19;5072417;27;45258;-69
2023/09/26 05:52:43;;;;;;;;;13.33;13.33;;;;;16.94;65.10;101464.78;5074724;27;45484;-72
2023/09/26 05:55:26;;;;;;;;;14.00;13.00;;;;;16.81;65.07;101446.41;5065406;27;45496;-68
2023/09/26 05:57:52;;;;;;;;;12.00;11.67;;;;;16.88;65.09;101448.09;5066825;27;45652;-73
2023/09/26 06:00:18;;;;;;;;;15.00;12.33;;;;;16.99;64.95;101456.78;5074913;27;45409;-75
2023/09/26 06:02:54;;;;;;;;;15.33;13.33;;;;;16.89;64.91;101437.47;5062914;27;45558;-75
2023/09/26 06:05:20;;;;;;;;;13.33;13.00;;;;;17.16;64.69;101459.19;5060732;27;45524;-76
2023/09/26 06:07:45;;;;;;;;;16.00;13.33;;;;;17.04;64.61;101449.66;5065572;27;45376;-77
2023/09/26 06:10:11;;;;;;;;;19.33;17.33;;;;;17.08;64.73;101461.06;5061937;28;45567;-75
2023/09/26 06:12:54;;;;;;;;;14.33;14.33;;;;;17.12;64.78;101454.81;5064799;27;45484;-79
2023/09/26 06:15:21;;;;;;;;;14.67;13.67;;;;;16.69;64.94;101383.94;5060906;27;45466;-78
2023/09/26 06:17:46;;;;;;;;;17.33;14.67;;;;;17.02;65.13;101455.88;5088996;27;45554;-77
2023/09/26 06:20:12;;;;;;;;;15.33;15.33;;;;;16.72;64.95;101399.75;5070392;28;45353;-74
2023/09/26 06:22:38;;;;;;;;;15.00;13.67;;;;;16.75;64.72;101387.38;5076278;27;45630;-78
2023/09/26 06:25:04;;;;;;;;;13.67;12.33;;;;;17.07;64.46;101432.84;5076945;28;45455;-72
2023/09/26 06:27:37;;;;;;;;;14.33;13.67;;;;;17.06;64.09;101434.63;5073861;27;45232;-77
2023/09/26 06:30:14;;;;;;;;;11.33;11.33;;;;;17.22;64.38;101460.88;5079348;27;45345;-79
2023/09/26 06:32:42;;;;;;;;;11.67;10.33;;;;;17.09;63.93;101446.94;5080263;27;45482;-75
2023/09/26 06:35:08;;;;;;;;;16.00;11.67;;;;;17.25;64.37;101463.47;5080612;27;45290;-78
2023/09/26 06:37:37;;;;;;;;;12.33;12.33;;;;;16.38;64.34;101312.94;5075075;27;45813;-77
2023/09/26 06:40:05;;;;;;;;;14.67;14.67;;;;;16.95;64.80;101439.19;5076714;27;45355;-80
2023/09/26 06:42:32;;;;;;;;;19.00;13.67;;;;;16.75;65.19;101421.75;5063567;27;47914;-79
2023/09/26 06:44:58;;;;;;;;;17.67;15.33;;;;;16.82;65.27;101432.28;5075674;28;45643;-76
2023/09/26 06:47:29;;;;;;;;;15.67;12.00;;;;;16.73;65.09;101418.25;5076325;27;45355;-78
2023/09/26 06:49:55;;;;;;;;;14.00;11.33;;;;;17.14;64.87;101466.28;5072467;27;45437;-77
2023/09/26 06:52:22;;;;;;;;;11.33;11.00;;;;;17.33;64.32;101469.53;5073427;27;45409;-80
2023/09/26 06:54:49;;;;;;;;;12.67;11.00;;;;;17.01;64.08;101383.50;5067538;27;45344;-78
2023/09/26 06:57:18;;;;;;;;;18.33;16.00;;;;;17.67;62.94;101475.19;5075431;27;45271;-79
2023/09/26 06:59:52;;;;;;;;;12.00;12.00;;;;;17.55;62.21;101425.06;5072540;27;45547;-79
2023/09/26 07:02:19;;;;;;;;;15.67;11.33;;;;;17.65;61.49;101394.88;5074555;28;45390;-78
2023/09/26 07:04:46;;;;;;;;;15.00;11.67;;;;;17.63;61.33;101412.59;5069742;27;45575;-73
2023/09/26 07:07:12;;;;;;;;;14.33;14.00;;;;;17.83;61.42;101452.03;5066109;27;45554;-74
2023/09/26 07:09:39;;;;;;;;;14.33;14.33;;;;;17.87;61.35;101458.13;5067095;28;45487;-77
2023/09/26 07:12:05;;;;;;;;;14.67;13.00;;;;;17.90;61.07;101466.91;5060388;28;45553;-77
2023/09/26 07:14:35;;;;;;;;;12.33;12.33;;;;;17.86;61.31;101464.34;5063679;27;45463;-78
2023/09/26 07:17:01;;;;;;;;;16.33;12.33;;;;;17.83;61.14;101451.16;5068967;27;45508;-77
2023/09/26 07:19:33;;;;;;;;;14.33;11.00;;;;;18.04;61.31;101466.69;5077034;27;45507;-77
2023/09/26 07:21:59;;;;;;;;;15.00;9.33;;;;;18.14;60.16;101470.06;5077073;27;46208;-76
2023/09/26 07:24:25;;;;;;;;;14.00;12.00;;;;;18.21;60.32;101445.19;5062017;27;46711;-77
2023/09/26 07:27:08;;;;;;;;;13.33;12.00;;;;;18.41;59.96;101458.06;5067043;27;45428;-78
2023/09/26 07:29:35;;;;;;;;;12.00;11.00;;;;;18.46;59.16;101464.16;5076389;27;45447;-79
2023/09/26 07:32:01;;;;;;;;;10.33;9.33;;;;;18.31;59.03;101445.88;5071455;27;46154;-78
2023/09/26 07:34:27;;;;;;;;;8.67;8.33;;;;;18.48;59.22;101477.38;5077830;27;45381;-76
2023/09/26 07:36:52;;;;;;;;;12.67;10.00;;;;;18.65;59.00;101491.22;5076672;27;45299;-81
2023/09/26 07:39:18;;;;;;;;;13.33;11.00;;;;;18.39;59.01;101449.28;5077029;27;45421;-79
2023/09/26 07:41:45;;;;;;;;;9.00;7.33;;;;;18.66;59.50;101482.34;5077862;27;45537;-75
2023/09/26 07:44:11;;;;;;;;;14.67;10.33;;;;;18.71;58.73;101482.25;5066102;27;45368;-76
2023/09/26 07:46:36;;;;;;;;;11.00;9.00;;;;;18.65;58.98;101460.25;5077064;28;45835;-74
2023/09/26 07:49:02;;;;;;;;;16.00;14.67;;;;;18.65;58.98;101483.25;5072636;27;45574;-77
2023/09/26 07:51:28;;;;;;;;;17.33;11.67;;;;;18.64;59.29;101490.31;5076130;27;45623;-75
2023/09/26 07:53:53;;;;;;;;;13.67;12.33;;;;;18.78;59.09;101476.81;5077878;27;45495;-70
2023/09/26 07:56:19;;;;;;;;;13.00;11.33;;;;;18.78;58.81;101481.25;5079978;27;45468;-73
2023/09/26 07:58:44;;;;;;;;;13.67;11.00;;;;;18.64;58.78;101458.47;5078022;27;45480;-71
2023/09/26 08:01:10;;;;;;;;;16.67;11.00;;;;;18.65;58.38;101448.75;5079663;28;46075;-69
2023/09/26 08:03:38;;;;;;;;;13.00;12.00;;;;;18.78;58.45;101463.53;5079189;27;45594;-73
2023/09/26 08:06:05;;;;;;;;;16.33;13.67;;;;;18.93;58.21;101486.22;5080637;27;45327;-75
2023/09/26 08:08:32;;;;;;;;;14.00;9.67;;;;;18.83;58.64;101487.34;5080582;27;45267;-75
2023/09/26 08:11:10;;;;;;;;;13.33;10.67;;;;;18.95;58.53;101495.03;5080335;27;46143;-70
2023/09/26 08:13:37;;;;;;;;;15.67;10.33;;;;;19.07;58.35;101483.28;5079115;27;45486;-70
2023/09/26 08:16:03;;;;;;;;;9.67;9.67;;;;;19.18;58.06;101475.13;5078743;27;45288;-74
2023/09/26 08:18:29;;;;;;;;;19.33;16.67;;;;;19.34;57.35;101481.84;5079352;27;45375;-69
2023/09/26 08:20:58;;;;;;;;;10.33;10.33;;;;;19.21;56.87;101459.97;5079235;28;45668;-74
2023/09/26 08:23:24;;;;;;;;;11.67;9.00;;;;;19.26;56.79;101475.81;5080277;27;45320;-69
2023/09/26 08:26:00;;;;;;;;;11.00;11.00;;;;;19.36;56.87;101482.69;5079756;27;45434;-71
2023/09/26 08:28:26;;;;;;;;;14.33;10.33;;;;;19.51;56.77;101493.84;5078651;28;45416;-71
2023/09/26 08:30:56;;;;;;;;;14.00;11.33;;;;;19.46;56.75;101491.31;5079571;27;46393;-69
2023/09/26 08:33:26;;;;;;;;;10.67;8.33;;;;;19.47;56.58;101499.22;5076669;28;45322;-68
2023/09/26 08:35:52;;;;;;;;;11.33;11.33;;;;;19.39;56.59;101502.97;5078089;27;45406;-69
2023/09/26 08:38:18;;;;;;;;;13.33;10.67;;;;;19.30;57.08;101496.06;5078203;27;45438;-68
2023/09/26 08:40:44;;;;;;;;;12.67;11.67;;;;;19.35;56.83;101485.34;5077759;27;45423;-68
2023/09/26 08:43:14;;;;;;;;;12.67;10.33;;;;;19.37;57.12;101481.75;5079066;27;45512;-68
2023/09/26 08:45:40;;;;;;;;;12.67;11.00;;;;;19.23;57.12;101442.22;5069074;27;45385;-68
2023/09/26 08:48:06;;;;;;;;;13.33;12.33;;;;;19.35;56.61;101464.97;5079517;27;45475;-69
2023/09/26 08:50:31;;;;;;;;;11.67;10.67;;;;;19.39;57.11;101479.06;5076614;28;45688;-72
2023/09/26 08:52:59;;;;;;;;;12.00;9.67;;;;;19.41;56.81;101475.47;5078147;28;45699;-67
2023/09/26 08:55:26;;;;;;;;;9.67;8.67;;;;;19.30;57.17;101453.59;5077694;28;45495;-68
2023/09/26 08:57:54;;;;;;;;;10.67;10.67;;;;;19.44;56.99;101470.06;5078564;27;45412;-67
2023/09/26 09:00:21;;;;;;;;;11.33;9.33;;;;;19.63;56.40;101483.81;5077973;27;46517;-70
2023/09/26 09:02:48;;;;;;;;;11.67;10.00;;;;;19.54;56.99;101437.97;5078444;27;45263;-74
2023/09/26 09:05:26;;;;;;;;;11.00;8.67;;;;;19.79;56.61;101457.78;5077546;28;45478;-70
2023/09/26 09:07:52;;;;;;;;;12.33;9.67;;;;;19.91;56.42;101467.22;5076798;27;45476;-71
2023/09/26 09:10:17;;;;;;;;;14.67;10.33;;;;;19.98;56.29;101450.22;5076430;28;47585;-70
2023/09/26 09:12:47;;;;;;;;;12.67;12.00;;;;;20.05;55.72;101462.44;5078151;27;46305;-70
2023/09/26 09:15:16;;;;;;;;;11.00;9.33;;;;;20.15;55.67;101465.72;5078381;27;45456;-67
2023/09/26 09:17:43;;;;;;;;;10.33;9.67;;;;;20.25;55.79;101459.22;5079010;27;45608;-69
2023/09/26 09:20:19;;;;;;;;;9.67;8.67;;;;;20.44;55.11;101438.31;5077618;27;45498;-69
2023/09/26 09:22:47;;;;;;;;;12.00;10.00;;;;;20.60;54.34;101445.91;5093431;27;45438;-67
2023/09/26 09:25:13;;;;;;;;;11.67;11.67;;;;;20.71;54.17;101451.78;5079054;27;45491;-69
2023/09/26 09:27:43;;;;;;;;;11.00;10.33;;;;;20.87;54.14;101455.75;5078277;28;45784;-71
2023/09/26 09:30:19;;;;;;;;;15.00;11.00;;;;;21.02;53.84;101458.88;5077550;27;46140;-67
2023/09/26 09:32:45;;;;;;;;;15.33;12.33;;;;;21.07;54.04;101467.59;5077701;27;45251;-69
2023/09/26 09:35:14;;;;;;;;;10.00;9.00;;;;;21.14;53.70;101459.41;5077348;27;45388;-69
2023/09/26 09:37:45;;;;;;;;;9.67;9.33;;;;;21.35;53.64;101456.97;5076588;27;45619;-68
2023/09/26 09:40:23;;;;;;;;;12.00;9.67;;;;;21.39;52.68;101427.53;5064885;27;46472;-74
2023/09/26 09:42:49;;;;;;;;;11.67;9.33;;;;;21.70;51.97;101445.19;5077631;27;45606;-72
2023/09/26 09:45:16;;;;;;;;;6.00;6.00;;;;;21.93;51.59;101465.78;5077168;27;45398;-71
2023/09/26 09:47:44;;;;;;;;;8.67;8.67;;;;;22.25;51.67;101449.59;5077771;27;45421;-72
2023/09/26 09:50:12;;;;;;;;;9.33;9.00;;;;;22.36;50.63;101439.44;5077292;27;45598;-69
2023/09/26 09:52:46;;;;;;;;;11.00;9.00;;;;;22.46;50.53;101451.50;5078996;27;45448;-69
2023/09/26 09:55:23;;;;;;;;;10.33;8.67;;;;;22.52;50.97;101453.97;5076980;28;45927;-70
2023/09/26 09:57:52;;;;;;;;;9.33;9.33;;;;;22.67;50.17;101447.19;5094158;27;45260;-73
2023/09/26 10:00:24;;;;;;;;;11.33;9.67;;;;;22.66;49.79;101434.78;5077749;27;45850;-72
2023/09/26 10:02:51;;;;;;;;;9.33;8.67;;;;;22.64;50.05;101447.31;5076200;28;45358;-74
2023/09/26 10:05:19;;;;;;;;;8.00;7.33;;;;;22.72;49.72;101437.19;5077445;27;45600;-76
2023/09/26 10:07:46;;;;;;;;;11.67;9.33;;;;;22.78;49.93;101433.41;5076225;28;45439;-73
2023/09/26 10:10:13;;;;;;;;;9.00;8.33;;;;;22.97;49.53;101445.16;5066862;27;45519;-73
2023/09/26 10:12:41;;;;;;;;;7.00;7.00;;;;;23.18;49.58;101459.53;5072844;27;45412;-75
2023/09/26 10:15:11;;;;;;;;;12.33;8.67;;;;;23.39;49.09;101459.59;5077107;27;45523;-75
2023/09/26 10:17:39;;;;;;;;;9.33;8.00;;;;;23.58;48.87;101462.38;5076968;27;45499;-73
2023/09/26 10:20:07;;;;;;;;;6.33;6.00;;;;;23.82;48.26;101465.88;5076903;27;46739;-73
2023/09/26 10:22:35;;;;;;;;;10.00;5.75;;;;;23.89;47.83;101441.50;5080713;27;45647;-71
2023/09/26 10:25:02;;;;;;;;;7.00;7.00;;;;;24.12;47.17;101439.63;5068329;28;45402;-72
2023/09/26 10:27:30;;;;;;;;;9.25;8.50;;;;;24.42;47.26;101436.56;5071016;27;45486;-71
2023/09/26 10:29:57;;;;;;;;;8.25;8.00;;;;;24.58;45.73;101418.00;5076296;27;46647;-70
2023/09/26 10:32:34;;;;;;;;;7.75;6.00;;;;;24.87;46.37;101436.28;5076070;27;45518;-68
2023/09/26 10:35:22;;;;;;;;;9.75;9.75;;;;;25.19;45.66;101436.59;5077308;27;45455;-73
2023/09/26 10:38:01;;;;;;;;;137.75;106.25;;;;;25.66;44.96;101437.88;5077719;27;45610;-72
2023/09/26 10:40:26;;;;;;;;;188.00;144.33;;;;;25.95;44.67;101441.81;5077417;27;45936;-73
2023/09/26 10:42:52;;;;;;;;;253.25;198.00;;;;;26.28;44.68;101430.25;5077619;27;45462;-71
2023/09/26 10:45:18;;;;;;;;;132.50;112.00;;;;;26.55;43.87;101412.72;5078185;28;45444;-76
2023/09/26 10:47:44;;;;;;;;;83.50;66.50;;;;;26.78;43.11;101386.38;5077407;27;45391;-70
2023/09/26 10:50:13;;;;;;;;;50.33;36.33;;;;;27.03;41.62;101404.69;5076143;27;45448;-69
2023/09/26 10:52:49;;;;;;;;;23.33;17.33;;;;;27.24;41.62;101416.06;5076516;27;45330;-69
2023/09/26 10:55:16;;;;;;;;;14.50;13.00;;;;;27.57;41.13;101407.84;5077217;27;45539;-70
2023/09/26 10:57:43;;;;;;;;;45.67;34.67;;;;;28.07;41.59;101421.97;5076753;27;45477;-71
2023/09/26 11:00:11;;;;;;;;;49.33;38.00;;;;;28.95;39.83;101403.94;5074593;28;46884;-68
2023/09/26 11:02:36;;;;;;;;;29.67;25.67;;;;;30.90;36.35;101414.06;5076031;27;45356;-71
2023/09/26 11:05:12;;;;;;;;;16.75;15.25;;;;;33.08;32.79;101402.59;5076177;27;45456;-70
2023/09/26 11:07:38;;;;;;;;;25.00;18.50;;;;;34.78;30.82;101392.50;5076520;27;45267;-74
2023/09/26 11:10:05;;;;;;;;;25.50;18.25;;;;;36.05;29.30;101393.47;5076972;27;46240;-74
2023/09/26 11:12:32;;;;;;;;;14.40;13.00;;;;;36.67;27.18;101385.69;5076633;28;45406;-77
2023/09/26 11:15:00;;;;;;;;;12.80;11.20;;;;;36.94;25.89;101368.41;5076459;27;45539;-77
2023/09/26 11:17:29;;;;;;;;;12.60;8.40;;;;;36.99;25.95;101376.97;5076364;27;45594;-71
2023/09/26 11:19:59;;;;;;;;;13.00;12.20;;;;;36.79;26.72;101361.78;5071540;28;45773;-74
2023/09/26 11:22:26;;;;;;;;;13.40;12.60;;;;;37.16;26.50;101377.19;5066710;27;45562;-74